KTNU/TNU METAR and TAF weather

Enter ICAO airport designator
Station Type Date Time Source
KTNU METAR 2019/02/16 03:15 UTC NOAA

KTNU 160315Z AUTO 33007KT 10SM CLR M13/M15 A3014 RMK AO2


Station Type Date Time Source
KTNU Decoded METAR 2019/02/16 03:15 UTC NOAA

Newton Municipal, IA, United States (KTNU) 41-41N 093-01W
Feb 15, 2019 - 10:15 PM EST / 2019.02.16 0315 UTC
Wind: from the NNW (330 degrees) at 8 MPH (7 KT):0
Visibility: 10 mile(s):0
Sky conditions: clear
Temperature: 8 F (-13 C)
Windchill: -4 F (-20 C):1
Dew Point: 5 F (-15 C)
Relative Humidity: 84%
Pressure (altimeter): 30.14 in. Hg (1020 hPa)
ob: KTNU 160315Z AUTO 33007KT 10SM CLR M13/M15 A3014 RMK AO2
cycle: 3

Station Type Date Time Source
KTNU TAF UTC NOAA

Error!


Example: see airport list